sensor_id;sensor_type;location;lat;lon;timestamp;temperature;humidity
59505;DHT22;45321;53.200;5.814;2022-09-09T00:01:59;16.10;93.90
59505;DHT22;45321;53.200;5.814;2022-09-09T00:04:32;16.10;93.90
59505;DHT22;45321;53.200;5.814;2022-09-09T00:15:21;16.10;93.80
59505;DHT22;45321;53.200;5.814;2022-09-09T00:18:07;16.00;93.80
59505;DHT22;45321;53.200;5.814;2022-09-09T00:20:59;16.00;93.80
59505;DHT22;45321;53.200;5.814;2022-09-09T00:23:30;16.00;93.80
59505;DHT22;45321;53.200;5.814;2022-09-09T00:26:35;16.00;93.80
59505;DHT22;45321;53.200;5.814;2022-09-09T00:31:38;16.00;93.80
59505;DHT22;45321;53.200;5.814;2022-09-09T00:34:24;16.00;94.00
59505;DHT22;45321;53.200;5.814;2022-09-09T00:36:52;16.00;94.00
59505;DHT22;45321;53.200;5.814;2022-09-09T00:39:32;16.00;94.00
59505;DHT22;45321;53.200;5.814;2022-09-09T00:42:14;16.00;94.00
59505;DHT22;45321;53.200;5.814;2022-09-09T00:58:10;16.00;94.00
59505;DHT22;45321;53.200;5.814;2022-09-09T01:11:25;15.80;94.00
59505;DHT22;45321;53.200;5.814;2022-09-09T01:16:40;15.80;93.90
59505;DHT22;45321;53.200;5.814;2022-09-09T01:19:10;15.80;94.10
59505;DHT22;45321;53.200;5.814;2022-09-09T01:23:04;15.90;94.00
59505;DHT22;45321;53.200;5.814;2022-09-09T01:28:03;15.80;94.10
59505;DHT22;45321;53.200;5.814;2022-09-09T01:30:31;15.80;94.20
59505;DHT22;45321;53.200;5.814;2022-09-09T01:32:58;15.80;94.20
59505;DHT22;45321;53.200;5.814;2022-09-09T01:35:40;15.80;94.10
59505;DHT22;45321;53.200;5.814;2022-09-09T01:38:09;15.80;94.10
59505;DHT22;45321;53.200;5.814;2022-09-09T01:40:35;15.80;94.20
59505;DHT22;45321;53.200;5.814;2022-09-09T01:43:01;15.80;94.10
59505;DHT22;45321;53.200;5.814;2022-09-09T01:45:28;15.90;94.10
59505;DHT22;45321;53.200;5.814;2022-09-09T01:47:54;15.80;94.10
59505;DHT22;45321;53.200;5.814;2022-09-09T01:50:22;15.90;94.20
59505;DHT22;45321;53.200;5.814;2022-09-09T01:52:54;15.80;94.10
59505;DHT22;45321;53.200;5.814;2022-09-09T01:55:38;15.80;94.20
59505;DHT22;45321;53.200;5.814;2022-09-09T02:01:23;15.90;94.10
59505;DHT22;45321;53.200;5.814;2022-09-09T02:03:54;15.80;94.10
59505;DHT22;45321;53.200;5.814;2022-09-09T02:06:37;15.80;94.10
59505;DHT22;45321;53.200;5.814;2022-09-09T02:09:10;15.80;94.10
59505;DHT22;45321;53.200;5.814;2022-09-09T02:11:37;15.80;94.30
59505;DHT22;45321;53.200;5.814;2022-09-09T02:14:08;15.80;94.30
59505;DHT22;45321;53.200;5.814;2022-09-09T02:16:39;15.80;94.30
59505;DHT22;45321;53.200;5.814;2022-09-09T02:19:16;15.80;94.30
59505;DHT22;45321;53.200;5.814;2022-09-09T02:21:51;15.80;94.40
59505;DHT22;45321;53.200;5.814;2022-09-09T02:24:19;15.80;94.30
59505;DHT22;45321;53.200;5.814;2022-09-09T02:26:46;15.80;94.30
59505;DHT22;45321;53.200;5.814;2022-09-09T02:29:21;15.80;94.30
59505;DHT22;45321;53.200;5.814;2022-09-09T02:31:49;15.80;94.40
59505;DHT22;45321;53.200;5.814;2022-09-09T02:34:18;15.80;94.20
59505;DHT22;45321;53.200;5.814;2022-09-09T02:36:46;15.80;94.30
59505;DHT22;45321;53.200;5.814;2022-09-09T02:39:12;15.70;94.10
59505;DHT22;45321;53.200;5.814;2022-09-09T02:41:42;15.70;94.20
59505;DHT22;45321;53.200;5.814;2022-09-09T02:44:12;15.70;94.20
59505;DHT22;45321;53.200;5.814;2022-09-09T02:53:14;15.80;94.30
59505;DHT22;45321;53.200;5.814;2022-09-09T02:55:53;15.70;94.40
59505;DHT22;45321;53.200;5.814;2022-09-09T02:58:21;15.70;94.30
59505;DHT22;45321;53.200;5.814;2022-09-09T03:00:49;15.70;94.40
59505;DHT22;45321;53.200;5.814;2022-09-09T03:03:17;15.70;94.40
59505;DHT22;45321;53.200;5.814;2022-09-09T03:05:43;15.70;94.30
59505;DHT22;45321;53.200;5.814;2022-09-09T03:08:10;15.70;94.40
59505;DHT22;45321;53.200;5.814;2022-09-09T03:10:36;15.70;94.30
59505;DHT22;45321;53.200;5.814;2022-09-09T03:13:03;15.70;94.40
59505;DHT22;45321;53.200;5.814;2022-09-09T03:15:31;15.70;94.50
59505;DHT22;45321;53.200;5.814;2022-09-09T03:17:58;15.70;94.60
59505;DHT22;45321;53.200;5.814;2022-09-09T03:20:25;15.70;94.30
59505;DHT22;45321;53.200;5.814;2022-09-09T03:22:55;15.80;94.40
59505;DHT22;45321;53.200;5.814;2022-09-09T03:25:21;15.70;94.40
59505;DHT22;45321;53.200;5.814;2022-09-09T03:27:52;15.80;94.40
59505;DHT22;45321;53.200;5.814;2022-09-09T03:30:21;15.70;94.40
59505;DHT22;45321;53.200;5.814;2022-09-09T03:32:47;15.70;94.40
59505;DHT22;45321;53.200;5.814;2022-09-09T03:35:13;15.70;94.40
59505;DHT22;45321;53.200;5.814;2022-09-09T03:37:39;15.70;94.40
59505;DHT22;45321;53.200;5.814;2022-09-09T03:40:05;15.70;94.40
59505;DHT22;45321;53.200;5.814;2022-09-09T03:42:31;15.70;94.50
59505;DHT22;45321;53.200;5.814;2022-09-09T03:44:57;15.70;94.40
59505;DHT22;45321;53.200;5.814;2022-09-09T03:47:24;15.70;94.50
59505;DHT22;45321;53.200;5.814;2022-09-09T03:49:50;15.70;94.40
59505;DHT22;45321;53.200;5.814;2022-09-09T03:52:16;15.70;94.50
59505;DHT22;45321;53.200;5.814;2022-09-09T03:54:42;15.70;94.30
59505;DHT22;45321;53.200;5.814;2022-09-09T03:57:09;15.60;94.40
59505;DHT22;45321;53.200;5.814;2022-09-09T03:59:36;15.70;94.50
59505;DHT22;45321;53.200;5.814;2022-09-09T04:02:02;15.60;94.50
59505;DHT22;45321;53.200;5.814;2022-09-09T04:04:28;15.70;94.60
59505;DHT22;45321;53.200;5.814;2022-09-09T04:06:54;15.70;94.40
59505;DHT22;45321;53.200;5.814;2022-09-09T04:09:20;15.70;94.50
59505;DHT22;45321;53.200;5.814;2022-09-09T04:11:46;15.70;94.50
59505;DHT22;45321;53.200;5.814;2022-09-09T04:14:11;15.70;94.50
59505;DHT22;45321;53.200;5.814;2022-09-09T04:16:38;15.70;94.50
59505;DHT22;45321;53.200;5.814;2022-09-09T04:19:05;15.70;94.40
59505;DHT22;45321;53.200;5.814;2022-09-09T04:21:32;15.70;94.50
59505;DHT22;45321;53.200;5.814;2022-09-09T04:23:58;15.70;94.50
59505;DHT22;45321;53.200;5.814;2022-09-09T04:26:24;15.60;94.40
59505;DHT22;45321;53.200;5.814;2022-09-09T04:28:49;15.70;94.40
59505;DHT22;45321;53.200;5.814;2022-09-09T04:31:21;15.60;94.40
59505;DHT22;45321;53.200;5.814;2022-09-09T04:33:49;15.60;94.50
59505;DHT22;45321;53.200;5.814;2022-09-09T04:36:16;15.60;94.50
59505;DHT22;45321;53.200;5.814;2022-09-09T04:38:42;15.60;94.40
59505;DHT22;45321;53.200;5.814;2022-09-09T04:41:10;15.60;94.40
59505;DHT22;45321;53.200;5.814;2022-09-09T04:43:40;15.60;94.50
59505;DHT22;45321;53.200;5.814;2022-09-09T04:46:05;15.70;94.60
59505;DHT22;45321;53.200;5.814;2022-09-09T04:48:31;15.60;94.60
59505;DHT22;45321;53.200;5.814;2022-09-09T04:51:03;15.60;94.60
59505;DHT22;45321;53.200;5.814;2022-09-09T04:53:30;15.60;94.70
59505;DHT22;45321;53.200;5.814;2022-09-09T04:56:04;15.60;94.50
59505;DHT22;45321;53.200;5.814;2022-09-09T04:58:31;15.60;94.60
59505;DHT22;45321;53.200;5.814;2022-09-09T05:01:05;15.60;94.70
59505;DHT22;45321;53.200;5.814;2022-09-09T05:03:31;15.70;94.70
59505;DHT22;45321;53.200;5.814;2022-09-09T05:06:06;15.60;94.70
59505;DHT22;45321;53.200;5.814;2022-09-09T05:08:34;15.70;94.70
59505;DHT22;45321;53.200;5.814;2022-09-09T05:11:00;15.70;94.70
59505;DHT22;45321;53.200;5.814;2022-09-09T05:13:26;15.70;94.70
59505;DHT22;45321;53.200;5.814;2022-09-09T05:15:53;15.70;94.70
59505;DHT22;45321;53.200;5.814;2022-09-09T05:18:19;15.70;94.70
59505;DHT22;45321;53.200;5.814;2022-09-09T05:20:45;15.70;94.70
59505;DHT22;45321;53.200;5.814;2022-09-09T05:23:11;15.70;94.80
59505;DHT22;45321;53.200;5.814;2022-09-09T05:25:37;15.70;94.70
59505;DHT22;45321;53.200;5.814;2022-09-09T05:28:03;15.70;94.80
59505;DHT22;45321;53.200;5.814;2022-09-09T05:30:28;15.70;94.80
59505;DHT22;45321;53.200;5.814;2022-09-09T05:32:57;15.70;94.80
59505;DHT22;45321;53.200;5.814;2022-09-09T05:35:23;15.80;94.90
59505;DHT22;45321;53.200;5.814;2022-09-09T05:37:49;15.80;94.80
59505;DHT22;45321;53.200;5.814;2022-09-09T05:40:14;15.80;94.90
59505;DHT22;45321;53.200;5.814;2022-09-09T05:42:41;15.80;94.80
59505;DHT22;45321;53.200;5.814;2022-09-09T05:45:08;15.70;94.90
59505;DHT22;45321;53.200;5.814;2022-09-09T05:47:34;15.70;94.80
59505;DHT22;45321;53.200;5.814;2022-09-09T05:50:01;15.80;94.80
59505;DHT22;45321;53.200;5.814;2022-09-09T05:52:26;15.80;94.70
59505;DHT22;45321;53.200;5.814;2022-09-09T05:54:52;15.70;94.80
59505;DHT22;45321;53.200;5.814;2022-09-09T05:57:20;15.80;94.80
59505;DHT22;45321;53.200;5.814;2022-09-09T05:59:46;15.80;94.90
59505;DHT22;45321;53.200;5.814;2022-09-09T06:02:12;15.80;94.90
59505;DHT22;45321;53.200;5.814;2022-09-09T06:04:38;15.80;94.90
59505;DHT22;45321;53.200;5.814;2022-09-09T06:07:05;15.80;94.90
59505;DHT22;45321;53.200;5.814;2022-09-09T06:09:31;15.80;94.80
59505;DHT22;45321;53.200;5.814;2022-09-09T06:11:57;15.80;94.80
59505;DHT22;45321;53.200;5.814;2022-09-09T06:14:24;15.80;94.80
59505;DHT22;45321;53.200;5.814;2022-09-09T06:16:51;15.80;94.90
59505;DHT22;45321;53.200;5.814;2022-09-09T06:19:17;15.90;94.70
59505;DHT22;45321;53.200;5.814;2022-09-09T06:21:42;15.90;94.80
59505;DHT22;45321;53.200;5.814;2022-09-09T06:24:10;15.90;94.80
59505;DHT22;45321;53.200;5.814;2022-09-09T06:26:38;15.90;94.90
59505;DHT22;45321;53.200;5.814;2022-09-09T06:29:07;16.00;94.70
59505;DHT22;45321;53.200;5.814;2022-09-09T06:31:34;16.00;94.70
59505;DHT22;45321;53.200;5.814;2022-09-09T06:34:05;16.00;94.80
59505;DHT22;45321;53.200;5.814;2022-09-09T06:36:33;16.00;94.60
59505;DHT22;45321;53.200;5.814;2022-09-09T06:38:59;16.00;94.60
59505;DHT22;45321;53.200;5.814;2022-09-09T06:41:28;16.00;94.70
59505;DHT22;45321;53.200;5.814;2022-09-09T06:43:54;16.10;94.80
59505;DHT22;45321;53.200;5.814;2022-09-09T06:46:28;16.10;94.70
59505;DHT22;45321;53.200;5.814;2022-09-09T06:48:59;16.10;94.60
59505;DHT22;45321;53.200;5.814;2022-09-09T06:51:34;16.10;94.60
59505;DHT22;45321;53.200;5.814;2022-09-09T06:54:01;16.10;94.60
59505;DHT22;45321;53.200;5.814;2022-09-09T06:56:29;16.10;94.50
59505;DHT22;45321;53.200;5.814;2022-09-09T06:58:57;16.10;94.50
59505;DHT22;45321;53.200;5.814;2022-09-09T07:01:34;16.10;94.40
59505;DHT22;45321;53.200;5.814;2022-09-09T07:04:01;16.10;94.40
59505;DHT22;45321;53.200;5.814;2022-09-09T07:06:29;16.00;94.40
59505;DHT22;45321;53.200;5.814;2022-09-09T07:08:58;16.00;94.30
59505;DHT22;45321;53.200;5.814;2022-09-09T07:11:29;16.00;94.30
59505;DHT22;45321;53.200;5.814;2022-09-09T07:13:57;16.10;94.50
59505;DHT22;45321;53.200;5.814;2022-09-09T07:16:24;16.00;94.20
59505;DHT22;45321;53.200;5.814;2022-09-09T07:18:50;16.00;94.20
59505;DHT22;45321;53.200;5.814;2022-09-09T07:21:17;16.10;94.40
59505;DHT22;45321;53.200;5.814;2022-09-09T07:23:43;16.10;94.20
59505;DHT22;45321;53.200;5.814;2022-09-09T07:26:16;16.00;94.30
59505;DHT22;45321;53.200;5.814;2022-09-09T07:28:43;16.10;94.00
59505;DHT22;45321;53.200;5.814;2022-09-09T07:31:19;16.10;94.10
59505;DHT22;45321;53.200;5.814;2022-09-09T07:33:48;16.10;94.30
59505;DHT22;45321;53.200;5.814;2022-09-09T07:36:16;16.10;94.50
59505;DHT22;45321;53.200;5.814;2022-09-09T07:38:48;16.20;94.60
59505;DHT22;45321;53.200;5.814;2022-09-09T07:41:16;16.20;94.50
59505;DHT22;45321;53.200;5.814;2022-09-09T07:43:44;16.30;94.40
59505;DHT22;45321;53.200;5.814;2022-09-09T07:46:12;16.30;94.20
59505;DHT22;45321;53.200;5.814;2022-09-09T07:48:43;16.30;94.00
59505;DHT22;45321;53.200;5.814;2022-09-09T07:51:12;16.30;94.00
59505;DHT22;45321;53.200;5.814;2022-09-09T07:53:41;16.30;94.10
59505;DHT22;45321;53.200;5.814;2022-09-09T07:56:09;16.40;94.10
59505;DHT22;45321;53.200;5.814;2022-09-09T07:58:37;16.40;94.10
59505;DHT22;45321;53.200;5.814;2022-09-09T08:01:33;16.50;94.20
59505;DHT22;45321;53.200;5.814;2022-09-09T08:04:07;16.50;94.20
59505;DHT22;45321;53.200;5.814;2022-09-09T08:06:42;16.60;93.90
59505;DHT22;45321;53.200;5.814;2022-09-09T08:09:08;16.60;93.90
59505;DHT22;45321;53.200;5.814;2022-09-09T08:11:35;16.70;93.80
59505;DHT22;45321;53.200;5.814;2022-09-09T08:14:02;16.70;94.00
59505;DHT22;45321;53.200;5.814;2022-09-09T08:16:31;16.80;93.70
59505;DHT22;45321;53.200;5.814;2022-09-09T08:18:57;16.80;93.50
59505;DHT22;45321;53.200;5.814;2022-09-09T08:21:30;16.80;93.60
59505;DHT22;45321;53.200;5.814;2022-09-09T08:23:58;16.90;93.70
59505;DHT22;45321;53.200;5.814;2022-09-09T08:26:29;17.00;93.70
59505;DHT22;45321;53.200;5.814;2022-09-09T08:28:57;17.10;93.80
59505;DHT22;45321;53.200;5.814;2022-09-09T08:31:29;17.20;93.70
59505;DHT22;45321;53.200;5.814;2022-09-09T08:33:56;17.20;93.70
59505;DHT22;45321;53.200;5.814;2022-09-09T08:36:24;17.20;93.10
59505;DHT22;45321;53.200;5.814;2022-09-09T08:38:52;17.20;92.90
59505;DHT22;45321;53.200;5.814;2022-09-09T08:55:54;17.40;93.40
59505;DHT22;45321;53.200;5.814;2022-09-09T08:58:33;17.50;92.90
59505;DHT22;45321;53.200;5.814;2022-09-09T09:03:44;17.60;92.80
59505;DHT22;45321;53.200;5.814;2022-09-09T09:09:22;17.70;92.80
59505;DHT22;45321;53.200;5.814;2022-09-09T09:11:56;17.70;92.70
59505;DHT22;45321;53.200;5.814;2022-09-09T09:14:31;17.70;92.20
59505;DHT22;45321;53.200;5.814;2022-09-09T09:17:05;17.80;92.70
59505;DHT22;45321;53.200;5.814;2022-09-09T09:19:35;17.80;92.50
59505;DHT22;45321;53.200;5.814;2022-09-09T09:22:22;17.90;92.60
59505;DHT22;45321;53.200;5.814;2022-09-09T09:24:56;17.90;92.80
59505;DHT22;45321;53.200;5.814;2022-09-09T09:29:58;18.00;92.20
59505;DHT22;45321;53.200;5.814;2022-09-09T09:32:28;18.00;91.40
59505;DHT22;45321;53.200;5.814;2022-09-09T09:34:56;18.00;91.80
59505;DHT22;45321;53.200;5.814;2022-09-09T09:37:36;18.00;92.20
59505;DHT22;45321;53.200;5.814;2022-09-09T09:40:19;18.00;91.80
59505;DHT22;45321;53.200;5.814;2022-09-09T09:42:58;18.00;91.80
59505;DHT22;45321;53.200;5.814;2022-09-09T09:45:44;18.00;90.70
59505;DHT22;45321;53.200;5.814;2022-09-09T09:48:11;18.00;91.00
59505;DHT22;45321;53.200;5.814;2022-09-09T09:50:48;18.00;91.10
59505;DHT22;45321;53.200;5.814;2022-09-09T09:58:26;18.00;91.10
59505;DHT22;45321;53.200;5.814;2022-09-09T10:00:54;18.10;91.10
59505;DHT22;45321;53.200;5.814;2022-09-09T10:03:27;18.20;91.00
59505;DHT22;45321;53.200;5.814;2022-09-09T10:05:53;18.20;90.30
59505;DHT22;45321;53.200;5.814;2022-09-09T10:08:20;18.20;89.80
59505;DHT22;45321;53.200;5.814;2022-09-09T10:11:07;18.30;89.10
59505;DHT22;45321;53.200;5.814;2022-09-09T10:19:37;18.40;87.00
59505;DHT22;45321;53.200;5.814;2022-09-09T10:38:32;18.80;86.20
59505;DHT22;45321;53.200;5.814;2022-09-09T10:44:03;18.90;85.00
59505;DHT22;45321;53.200;5.814;2022-09-09T10:47:26;18.90;85.10
59505;DHT22;45321;53.200;5.814;2022-09-09T10:55:20;19.20;85.40
59505;DHT22;45321;53.200;5.814;2022-09-09T10:57:55;19.30;86.10
59505;DHT22;45321;53.200;5.814;2022-09-09T11:03:02;19.40;83.60
59505;DHT22;45321;53.200;5.814;2022-09-09T11:05:41;19.50;85.30
59505;DHT22;45321;53.200;5.814;2022-09-09T11:08:21;19.50;81.30
59505;DHT22;45321;53.200;5.814;2022-09-09T11:11:17;19.70;82.70
59505;DHT22;45321;53.200;5.814;2022-09-09T11:13:55;19.90;83.50
59505;DHT22;45321;53.200;5.814;2022-09-09T11:19:36;20.20;82.20
59505;DHT22;45321;53.200;5.814;2022-09-09T11:22:35;20.20;81.40
59505;DHT22;45321;53.200;5.814;2022-09-09T11:25:23;20.20;79.50
59505;DHT22;45321;53.200;5.814;2022-09-09T11:28:14;20.20;80.90
59505;DHT22;45321;53.200;5.814;2022-09-09T11:39:51;21.40;78.20
59505;DHT22;45321;53.200;5.814;2022-09-09T11:42:24;21.70;75.50
59505;DHT22;45321;53.200;5.814;2022-09-09T11:44:50;22.00;76.40
59505;DHT22;45321;53.200;5.814;2022-09-09T11:47:37;22.20;77.40
59505;DHT22;45321;53.200;5.814;2022-09-09T11:52:46;22.70;74.10
59505;DHT22;45321;53.200;5.814;2022-09-09T11:55:30;22.90;75.00
59505;DHT22;45321;53.200;5.814;2022-09-09T11:57:59;23.20;73.50
59505;DHT22;45321;53.200;5.814;2022-09-09T12:00:39;23.30;71.50
59505;DHT22;45321;53.200;5.814;2022-09-09T12:06:41;23.60;72.10
59505;DHT22;45321;53.200;5.814;2022-09-09T12:11:33;23.20;74.00
59505;DHT22;45321;53.200;5.814;2022-09-09T12:14:00;22.80;73.80
59505;DHT22;45321;53.200;5.814;2022-09-09T12:16:35;22.40;71.80
59505;DHT22;45321;53.200;5.814;2022-09-09T12:19:13;22.10;75.30
59505;DHT22;45321;53.200;5.814;2022-09-09T12:22:08;21.80;73.70
59505;DHT22;45321;53.200;5.814;2022-09-09T12:24:59;21.60;76.10
59505;DHT22;45321;53.200;5.814;2022-09-09T12:28:22;21.30;77.20
59505;DHT22;45321;53.200;5.814;2022-09-09T12:30:24;21.30;76.70
59505;DHT22;45321;53.200;5.814;2022-09-09T12:33:08;21.40;77.00
59505;DHT22;45321;53.200;5.814;2022-09-09T12:35:35;21.30;76.90
59505;DHT22;45321;53.200;5.814;2022-09-09T12:38:04;21.20;75.20
59505;DHT22;45321;53.200;5.814;2022-09-09T12:40:35;21.10;77.20
59505;DHT22;45321;53.200;5.814;2022-09-09T12:43:14;21.10;77.70
59505;DHT22;45321;53.200;5.814;2022-09-09T12:45:42;21.00;77.50
59505;DHT22;45321;53.200;5.814;2022-09-09T12:48:11;21.00;76.60
59505;DHT22;45321;53.200;5.814;2022-09-09T12:50:59;20.90;77.70
59505;DHT22;45321;53.200;5.814;2022-09-09T12:53:38;20.90;77.30
59505;DHT22;45321;53.200;5.814;2022-09-09T12:56:07;21.30;77.10
59505;DHT22;45321;53.200;5.814;2022-09-09T12:58:35;21.70;76.00
59505;DHT22;45321;53.200;5.814;2022-09-09T13:01:03;22.00;77.20
59505;DHT22;45321;53.200;5.814;2022-09-09T13:03:33;22.20;74.80
59505;DHT22;45321;53.200;5.814;2022-09-09T13:06:11;22.40;75.70
59505;DHT22;45321;53.200;5.814;2022-09-09T13:08:37;22.40;75.90
59505;DHT22;45321;53.200;5.814;2022-09-09T13:11:08;22.30;76.10
59505;DHT22;45321;53.200;5.814;2022-09-09T13:13:41;22.50;76.20
59505;DHT22;45321;53.200;5.814;2022-09-09T13:16:19;22.50;73.50
59505;DHT22;45321;53.200;5.814;2022-09-09T13:18:45;22.30;74.40
59505;DHT22;45321;53.200;5.814;2022-09-09T13:21:12;22.10;73.50
59505;DHT22;45321;53.200;5.814;2022-09-09T13:23:41;21.90;75.40
59505;DHT22;45321;53.200;5.814;2022-09-09T13:26:26;21.80;76.10
59505;DHT22;45321;53.200;5.814;2022-09-09T13:28:54;21.90;77.10
59505;DHT22;45321;53.200;5.814;2022-09-09T13:31:38;22.10;74.60
59505;DHT22;45321;53.200;5.814;2022-09-09T13:34:22;22.40;71.70
59505;DHT22;45321;53.200;5.814;2022-09-09T13:36:53;22.50;73.40
59505;DHT22;45321;53.200;5.814;2022-09-09T13:39:20;22.40;71.40
59505;DHT22;45321;53.200;5.814;2022-09-09T13:41:46;22.30;72.90
59505;DHT22;45321;53.200;5.814;2022-09-09T13:44:35;22.20;74.00
59505;DHT22;45321;53.200;5.814;2022-09-09T13:49:42;21.80;74.90
59505;DHT22;45321;53.200;5.814;2022-09-09T13:52:13;21.60;75.30
59505;DHT22;45321;53.200;5.814;2022-09-09T13:54:40;21.40;77.10
59505;DHT22;45321;53.200;5.814;2022-09-09T13:57:15;21.20;77.00
59505;DHT22;45321;53.200;5.814;2022-09-09T13:59:42;21.10;78.90
59505;DHT22;45321;53.200;5.814;2022-09-09T14:02:08;21.20;80.60
59505;DHT22;45321;53.200;5.814;2022-09-09T14:04:34;21.40;79.90
59505;DHT22;45321;53.200;5.814;2022-09-09T14:07:01;21.60;79.60
59505;DHT22;45321;53.200;5.814;2022-09-09T14:09:27;21.70;79.60
59505;DHT22;45321;53.200;5.814;2022-09-09T14:11:52;21.70;79.10
59505;DHT22;45321;53.200;5.814;2022-09-09T14:14:20;21.80;79.20
59505;DHT22;45321;53.200;5.814;2022-09-09T14:16:46;21.80;78.40
59505;DHT22;45321;53.200;5.814;2022-09-09T14:19:12;22.00;78.30
59505;DHT22;45321;53.200;5.814;2022-09-09T14:21:38;22.20;78.00
59505;DHT22;45321;53.200;5.814;2022-09-09T14:24:04;22.20;78.40
59505;DHT22;45321;53.200;5.814;2022-09-09T14:26:30;22.30;78.00
59505;DHT22;45321;53.200;5.814;2022-09-09T14:28:56;22.20;77.50
59505;DHT22;45321;53.200;5.814;2022-09-09T14:31:25;22.10;76.70
59505;DHT22;45321;53.200;5.814;2022-09-09T14:33:51;21.90;77.60
59505;DHT22;45321;53.200;5.814;2022-09-09T14:36:16;21.90;77.50
59505;DHT22;45321;53.200;5.814;2022-09-09T14:38:42;21.80;78.00
59505;DHT22;45321;53.200;5.814;2022-09-09T14:41:16;21.70;78.20
59505;DHT22;45321;53.200;5.814;2022-09-09T14:43:45;21.70;77.90
59505;DHT22;45321;53.200;5.814;2022-09-09T14:46:14;21.60;78.10
59505;DHT22;45321;53.200;5.814;2022-09-09T14:48:43;21.50;77.30
59505;DHT22;45321;53.200;5.814;2022-09-09T14:51:20;21.40;78.20
59505;DHT22;45321;53.200;5.814;2022-09-09T14:53:48;21.30;78.50
59505;DHT22;45321;53.200;5.814;2022-09-09T14:56:18;21.20;78.50
59505;DHT22;45321;53.200;5.814;2022-09-09T14:58:45;21.20;77.60
59505;DHT22;45321;53.200;5.814;2022-09-09T15:01:16;21.10;77.40
59505;DHT22;45321;53.200;5.814;2022-09-09T15:03:48;20.90;77.00
59505;DHT22;45321;53.200;5.814;2022-09-09T15:06:14;20.80;76.90
59505;DHT22;45321;53.200;5.814;2022-09-09T15:08:42;20.70;77.40
59505;DHT22;45321;53.200;5.814;2022-09-09T15:11:08;20.60;78.20
59505;DHT22;45321;53.200;5.814;2022-09-09T15:13:35;20.40;77.40
59505;DHT22;45321;53.200;5.814;2022-09-09T15:16:06;20.30;80.30
59505;DHT22;45321;53.200;5.814;2022-09-09T15:18:33;20.30;82.00
59505;DHT22;45321;53.200;5.814;2022-09-09T15:20:59;20.20;83.00
59505;DHT22;45321;53.200;5.814;2022-09-09T15:23:28;20.10;83.80
59505;DHT22;45321;53.200;5.814;2022-09-09T15:25:56;19.90;84.70
59505;DHT22;45321;53.200;5.814;2022-09-09T15:28:22;19.80;86.20
59505;DHT22;45321;53.200;5.814;2022-09-09T15:30:49;19.70;86.10
59505;DHT22;45321;53.200;5.814;2022-09-09T15:33:15;19.60;86.80
59505;DHT22;45321;53.200;5.814;2022-09-09T15:35:41;19.60;87.00
59505;DHT22;45321;53.200;5.814;2022-09-09T15:38:07;19.50;87.00
59505;DHT22;45321;53.200;5.814;2022-09-09T15:40:32;19.30;86.80
59505;DHT22;45321;53.200;5.814;2022-09-09T15:42:58;19.20;86.90
59505;DHT22;45321;53.200;5.814;2022-09-09T15:45:24;19.10;87.10
59505;DHT22;45321;53.200;5.814;2022-09-09T15:47:50;19.10;87.40
59505;DHT22;45321;53.200;5.814;2022-09-09T15:50:15;19.00;87.50
59505;DHT22;45321;53.200;5.814;2022-09-09T15:52:41;19.00;87.60
59505;DHT22;45321;53.200;5.814;2022-09-09T15:55:07;19.00;87.50
59505;DHT22;45321;53.200;5.814;2022-09-09T15:57:34;19.00;87.70
59505;DHT22;45321;53.200;5.814;2022-09-09T16:00:00;19.10;87.60
59505;DHT22;45321;53.200;5.814;2022-09-09T16:02:26;19.00;87.50
59505;DHT22;45321;53.200;5.814;2022-09-09T16:04:52;19.00;87.70
59505;DHT22;45321;53.200;5.814;2022-09-09T16:07:18;19.10;87.80
59505;DHT22;45321;53.200;5.814;2022-09-09T16:09:44;19.00;87.90
59505;DHT22;45321;53.200;5.814;2022-09-09T16:12:10;19.10;87.90
59505;DHT22;45321;53.200;5.814;2022-09-09T16:14:37;19.10;87.80
59505;DHT22;45321;53.200;5.814;2022-09-09T16:17:04;19.10;87.80
59505;DHT22;45321;53.200;5.814;2022-09-09T16:19:31;19.10;88.20
59505;DHT22;45321;53.200;5.814;2022-09-09T16:21:57;19.00;88.10
59505;DHT22;45321;53.200;5.814;2022-09-09T16:24:23;18.90;87.90
59505;DHT22;45321;53.200;5.814;2022-09-09T16:26:51;18.90;88.30
59505;DHT22;45321;53.200;5.814;2022-09-09T16:29:18;18.90;88.30
59505;DHT22;45321;53.200;5.814;2022-09-09T16:31:48;18.90;88.30
59505;DHT22;45321;53.200;5.814;2022-09-09T16:34:15;18.90;88.30
59505;DHT22;45321;53.200;5.814;2022-09-09T16:36:42;18.90;88.40
59505;DHT22;45321;53.200;5.814;2022-09-09T16:39:13;18.80;88.40
59505;DHT22;45321;53.200;5.814;2022-09-09T16:41:41;18.80;88.10
59505;DHT22;45321;53.200;5.814;2022-09-09T16:44:08;18.80;88.40
59505;DHT22;45321;53.200;5.814;2022-09-09T16:46:37;18.80;88.50
59505;DHT22;45321;53.200;5.814;2022-09-09T16:49:06;18.80;88.20
59505;DHT22;45321;53.200;5.814;2022-09-09T16:51:41;18.90;88.10
59505;DHT22;45321;53.200;5.814;2022-09-09T16:54:08;18.90;88.00
59505;DHT22;45321;53.200;5.814;2022-09-09T16:56:37;18.90;88.00
59505;DHT22;45321;53.200;5.814;2022-09-09T16:59:07;18.90;87.80
59505;DHT22;45321;53.200;5.814;2022-09-09T17:01:35;18.90;88.60
59505;DHT22;45321;53.200;5.814;2022-09-09T17:04:26;18.90;88.50
59505;DHT22;45321;53.200;5.814;2022-09-09T17:06:54;18.90;88.70
59505;DHT22;45321;53.200;5.814;2022-09-09T17:09:21;18.90;88.50
59505;DHT22;45321;53.200;5.814;2022-09-09T17:11:48;18.90;88.50
59505;DHT22;45321;53.200;5.814;2022-09-09T17:14:17;18.80;88.70
59505;DHT22;45321;53.200;5.814;2022-09-09T17:16:44;18.80;89.00
59505;DHT22;45321;53.200;5.814;2022-09-09T17:19:11;18.80;88.60
59505;DHT22;45321;53.200;5.814;2022-09-09T17:21:37;18.70;88.50
59505;DHT22;45321;53.200;5.814;2022-09-09T17:24:03;18.70;88.90
59505;DHT22;45321;53.200;5.814;2022-09-09T17:26:31;18.70;88.20
59505;DHT22;45321;53.200;5.814;2022-09-09T17:28:59;18.60;88.40
59505;DHT22;45321;53.200;5.814;2022-09-09T17:31:27;18.60;88.70
59505;DHT22;45321;53.200;5.814;2022-09-09T17:33:53;18.50;88.80
59505;DHT22;45321;53.200;5.814;2022-09-09T17:36:31;18.50;88.90
59505;DHT22;45321;53.200;5.814;2022-09-09T17:38:59;18.50;89.00
59505;DHT22;45321;53.200;5.814;2022-09-09T17:41:34;18.50;89.20
59505;DHT22;45321;53.200;5.814;2022-09-09T17:44:01;18.40;89.50
59505;DHT22;45321;53.200;5.814;2022-09-09T17:46:38;18.50;89.60
59505;DHT22;45321;53.200;5.814;2022-09-09T17:49:16;18.40;89.80
59505;DHT22;45321;53.200;5.814;2022-09-09T17:51:43;18.40;89.90
59505;DHT22;45321;53.200;5.814;2022-09-09T17:54:20;18.40;89.90
59505;DHT22;45321;53.200;5.814;2022-09-09T17:56:47;18.40;90.10
59505;DHT22;45321;53.200;5.814;2022-09-09T17:59:14;18.40;89.90
59505;DHT22;45321;53.200;5.814;2022-09-09T18:01:43;18.40;90.00
59505;DHT22;45321;53.200;5.814;2022-09-09T18:04:10;18.40;90.00
59505;DHT22;45321;53.200;5.814;2022-09-09T18:06:40;18.40;90.00